sensor_id;sensor_type;location;lat;lon;timestamp;pressure;altitude;pressure_sealevel;temperature;humidity
69223;BME280;56514;51.816;-0.026;2023-02-03T00:00:34;102212.06;;;11.08;69.22
69223;BME280;56514;51.816;-0.026;2023-02-03T00:03:41;102210.69;;;11.18;68.59
69223;BME280;56514;51.816;-0.026;2023-02-03T00:06:46;102198.25;;;11.01;69.16
69223;BME280;56514;51.816;-0.026;2023-02-03T00:09:51;102198.91;;;11.06;69.19
69223;BME280;56514;51.816;-0.026;2023-02-03T00:13:00;102197.03;;;11.08;69.08
69223;BME280;56514;51.816;-0.026;2023-02-03T00:16:10;102195.75;;;10.98;69.05
69223;BME280;56514;51.816;-0.026;2023-02-03T00:19:19;102203.47;;;11.03;68.51
69223;BME280;56514;51.816;-0.026;2023-02-03T00:22:28;102205.69;;;10.93;69.09
69223;BME280;56514;51.816;-0.026;2023-02-03T00:25:39;102195.25;;;10.90;68.80
69223;BME280;56514;51.816;-0.026;2023-02-03T00:28:48;102183.13;;;10.86;68.92
69223;BME280;56514;51.816;-0.026;2023-02-03T00:31:57;102170.00;;;10.85;68.92
69223;BME280;56514;51.816;-0.026;2023-02-03T00:35:07;102176.47;;;10.78;69.02
69223;BME280;56514;51.816;-0.026;2023-02-03T00:37:53;102176.41;;;10.79;69.10
69223;BME280;56514;51.816;-0.026;2023-02-03T00:40:38;102169.13;;;10.84;68.89
69223;BME280;56514;51.816;-0.026;2023-02-03T00:43:23;102176.19;;;10.84;68.75
69223;BME280;56514;51.816;-0.026;2023-02-03T00:46:08;102172.56;;;10.86;68.32
69223;BME280;56514;51.816;-0.026;2023-02-03T00:48:54;102180.97;;;10.94;68.34
69223;BME280;56514;51.816;-0.026;2023-02-03T00:51:39;102194.09;;;10.96;68.08
69223;BME280;56514;51.816;-0.026;2023-02-03T00:54:24;102195.34;;;11.07;67.71
69223;BME280;56514;51.816;-0.026;2023-02-03T00:57:09;102202.03;;;11.14;67.38
69223;BME280;56514;51.816;-0.026;2023-02-03T00:59:54;102189.25;;;11.05;67.56
69223;BME280;56514;51.816;-0.026;2023-02-03T01:02:39;102192.47;;;11.12;67.44
69223;BME280;56514;51.816;-0.026;2023-02-03T01:05:24;102188.53;;;11.20;66.87
69223;BME280;56514;51.816;-0.026;2023-02-03T01:08:09;102187.84;;;11.17;67.17
69223;BME280;56514;51.816;-0.026;2023-02-03T01:10:54;102181.47;;;11.21;66.80
69223;BME280;56514;51.816;-0.026;2023-02-03T01:13:39;102186.84;;;11.19;67.37
69223;BME280;56514;51.816;-0.026;2023-02-03T01:16:24;102189.56;;;11.18;67.31
69223;BME280;56514;51.816;-0.026;2023-02-03T01:19:09;102194.09;;;11.33;66.92
69223;BME280;56514;51.816;-0.026;2023-02-03T01:21:54;102189.25;;;11.24;67.60
69223;BME280;56514;51.816;-0.026;2023-02-03T01:24:39;102177.28;;;11.17;67.61
69223;BME280;56514;51.816;-0.026;2023-02-03T01:27:23;102186.53;;;11.25;67.26
69223;BME280;56514;51.816;-0.026;2023-02-03T01:30:09;102179.56;;;11.24;67.30
69223;BME280;56514;51.816;-0.026;2023-02-03T01:32:54;102189.63;;;11.16;67.86
69223;BME280;56514;51.816;-0.026;2023-02-03T01:35:39;102183.41;;;11.17;67.81
69223;BME280;56514;51.816;-0.026;2023-02-03T01:38:24;102181.41;;;11.22;67.52
69223;BME280;56514;51.816;-0.026;2023-02-03T01:41:12;102181.41;;;11.22;67.68
69223;BME280;56514;51.816;-0.026;2023-02-03T01:43:59;102182.56;;;11.17;67.93
69223;BME280;56514;51.816;-0.026;2023-02-03T01:46:47;102180.75;;;11.17;67.81
69223;BME280;56514;51.816;-0.026;2023-02-03T01:49:35;102188.53;;;11.20;68.06
69223;BME280;56514;51.816;-0.026;2023-02-03T01:52:20;102185.38;;;11.31;67.85
69223;BME280;56514;51.816;-0.026;2023-02-03T01:55:09;102178.69;;;11.24;68.12
69223;BME280;56514;51.816;-0.026;2023-02-03T01:58:01;102165.78;;;11.18;68.15
69223;BME280;56514;51.816;-0.026;2023-02-03T02:00:51;102165.69;;;11.19;68.44
69223;BME280;56514;51.816;-0.026;2023-02-03T02:03:58;102162.84;;;11.05;69.04
69223;BME280;56514;51.816;-0.026;2023-02-03T02:06:45;102163.00;;;11.02;68.90
69223;BME280;56514;51.816;-0.026;2023-02-03T02:09:31;102168.28;;;11.02;68.99
69223;BME280;56514;51.816;-0.026;2023-02-03T02:12:16;102154.03;;;10.88;69.08
69223;BME280;56514;51.816;-0.026;2023-02-03T02:15:02;102162.72;;;10.90;69.68
69223;BME280;56514;51.816;-0.026;2023-02-03T02:17:53;102179.59;;;10.67;70.31
69223;BME280;56514;51.816;-0.026;2023-02-03T02:27:30;102180.72;;;10.43;71.21
69223;BME280;56514;51.816;-0.026;2023-02-03T02:30:35;102180.03;;;10.38;71.78
69223;BME280;56514;51.816;-0.026;2023-02-03T02:33:25;102166.97;;;10.55;71.15
69223;BME280;56514;51.816;-0.026;2023-02-03T02:39:22;102168.72;;;10.54;71.50
69223;BME280;56514;51.816;-0.026;2023-02-03T02:42:38;102163.47;;;10.54;71.16
69223;BME280;56514;51.816;-0.026;2023-02-03T02:45:29;102178.06;;;10.43;71.44
69223;BME280;56514;51.816;-0.026;2023-02-03T02:48:56;102175.56;;;10.40;71.39
69223;BME280;56514;51.816;-0.026;2023-02-03T02:51:43;102181.91;;;10.36;71.62
69223;BME280;56514;51.816;-0.026;2023-02-03T02:54:36;102180.44;;;10.29;71.73
69223;BME280;56514;51.816;-0.026;2023-02-03T02:57:25;102175.44;;;10.43;71.50
69223;BME280;56514;51.816;-0.026;2023-02-03T03:00:11;102179.28;;;10.36;71.59
69223;BME280;56514;51.816;-0.026;2023-02-03T03:02:56;102172.94;;;10.40;71.67
69223;BME280;56514;51.816;-0.026;2023-02-03T03:05:47;102180.91;;;10.38;71.67
69223;BME280;56514;51.816;-0.026;2023-02-03T03:08:58;102194.91;;;10.40;71.78
69223;BME280;56514;51.816;-0.026;2023-02-03T03:11:49;102183.19;;;10.66;70.69
69223;BME280;56514;51.816;-0.026;2023-02-03T03:14:38;102179.75;;;10.64;70.81
69223;BME280;56514;51.816;-0.026;2023-02-03T03:17:30;102176.44;;;10.59;70.60
69223;BME280;56514;51.816;-0.026;2023-02-03T03:20:21;102187.34;;;10.51;71.20
69223;BME280;56514;51.816;-0.026;2023-02-03T03:23:15;102184.94;;;10.65;70.41
69223;BME280;56514;51.816;-0.026;2023-02-03T03:26:10;102190.03;;;10.70;70.44
69223;BME280;56514;51.816;-0.026;2023-02-03T03:29:23;102205.19;;;10.65;70.51
69223;BME280;56514;51.816;-0.026;2023-02-03T03:32:07;102193.47;;;10.72;70.25
69223;BME280;56514;51.816;-0.026;2023-02-03T03:34:53;102191.69;;;10.73;70.18
69223;BME280;56514;51.816;-0.026;2023-02-03T03:37:52;102185.19;;;10.80;70.48
69223;BME280;56514;51.816;-0.026;2023-02-03T03:40:48;102190.41;;;10.81;69.90
69223;BME280;56514;51.816;-0.026;2023-02-03T03:43:38;102187.75;;;10.81;69.84
69223;BME280;56514;51.816;-0.026;2023-02-03T03:46:30;102184.47;;;10.76;69.84
69223;BME280;56514;51.816;-0.026;2023-02-03T03:49:19;102188.03;;;10.75;70.09
69223;BME280;56514;51.816;-0.026;2023-02-03T03:52:08;102179.53;;;10.68;70.13
69223;BME280;56514;51.816;-0.026;2023-02-03T03:54:56;102180.72;;;10.82;69.94
69223;BME280;56514;51.816;-0.026;2023-02-03T03:58:01;102182.09;;;10.70;70.46
69223;BME280;56514;51.816;-0.026;2023-02-03T04:00:51;102190.97;;;10.69;70.25
69223;BME280;56514;51.816;-0.026;2023-02-03T04:03:43;102186.28;;;10.76;70.04
69223;BME280;56514;51.816;-0.026;2023-02-03T04:06:29;102186.53;;;10.70;70.24
69223;BME280;56514;51.816;-0.026;2023-02-03T04:09:14;102176.97;;;10.67;70.69
69223;BME280;56514;51.816;-0.026;2023-02-03T04:11:59;102182.25;;;10.67;70.61
69223;BME280;56514;51.816;-0.026;2023-02-03T04:14:47;102177.63;;;10.72;70.40
69223;BME280;56514;51.816;-0.026;2023-02-03T04:17:32;102173.75;;;10.79;70.28
69223;BME280;56514;51.816;-0.026;2023-02-03T04:20:19;102176.41;;;10.79;70.26
69223;BME280;56514;51.816;-0.026;2023-02-03T04:23:05;102174.19;;;10.70;70.66
69223;BME280;56514;51.816;-0.026;2023-02-03T04:25:51;102173.59;;;10.63;71.13
69223;BME280;56514;51.816;-0.026;2023-02-03T04:28:36;102191.22;;;10.63;71.03
69223;BME280;56514;51.816;-0.026;2023-02-03T04:31:21;102192.34;;;10.57;71.11
69223;BME280;56514;51.816;-0.026;2023-02-03T04:34:05;102199.28;;;10.60;71.13
69223;BME280;56514;51.816;-0.026;2023-02-03T04:36:50;102202.19;;;10.54;71.34
69223;BME280;56514;51.816;-0.026;2023-02-03T04:39:35;102210.84;;;10.76;70.77
69223;BME280;56514;51.816;-0.026;2023-02-03T04:42:21;102211.06;;;10.72;70.74
69223;BME280;56514;51.816;-0.026;2023-02-03T04:45:08;102206.59;;;10.74;70.54
69223;BME280;56514;51.816;-0.026;2023-02-03T04:47:53;102219.44;;;10.81;70.72
69223;BME280;56514;51.816;-0.026;2023-02-03T04:50:38;102206.31;;;10.80;70.58
69223;BME280;56514;51.816;-0.026;2023-02-03T04:53:23;102198.03;;;10.87;70.27
69223;BME280;56514;51.816;-0.026;2023-02-03T04:56:07;102211.38;;;10.84;70.20
69223;BME280;56514;51.816;-0.026;2023-02-03T04:58:52;102206.09;;;10.84;70.50
69223;BME280;56514;51.816;-0.026;2023-02-03T05:01:37;102193.75;;;10.85;70.38
69223;BME280;56514;51.816;-0.026;2023-02-03T05:04:22;102209.69;;;10.83;70.73
69223;BME280;56514;51.816;-0.026;2023-02-03T05:07:06;102221.78;;;10.87;70.22
69223;BME280;56514;51.816;-0.026;2023-02-03T05:09:51;102238.56;;;10.86;70.26
69223;BME280;56514;51.816;-0.026;2023-02-03T05:12:36;102224.72;;;10.81;70.70
69223;BME280;56514;51.816;-0.026;2023-02-03T05:15:21;102235.72;;;10.91;70.16
69223;BME280;56514;51.816;-0.026;2023-02-03T05:18:06;102227.22;;;10.84;70.19
69223;BME280;56514;51.816;-0.026;2023-02-03T05:20:51;102224.66;;;10.83;70.34
69223;BME280;56514;51.816;-0.026;2023-02-03T05:23:36;102242.50;;;10.96;69.97
69223;BME280;56514;51.816;-0.026;2023-02-03T05:26:22;102240.66;;;10.98;69.79
69223;BME280;56514;51.816;-0.026;2023-02-03T05:29:07;102251.19;;;10.80;70.64
69223;BME280;56514;51.816;-0.026;2023-02-03T05:31:53;102248.34;;;10.84;70.33
69223;BME280;56514;51.816;-0.026;2023-02-03T05:34:38;102251.44;;;10.94;70.11
69223;BME280;56514;51.816;-0.026;2023-02-03T05:37:23;102249.03;;;11.08;69.22
69223;BME280;56514;51.816;-0.026;2023-02-03T05:40:08;102242.53;;;11.15;69.07
69223;BME280;56514;51.816;-0.026;2023-02-03T05:43:12;102244.94;;;11.01;69.39
69223;BME280;56514;51.816;-0.026;2023-02-03T05:46:01;102253.44;;;11.07;69.05
69223;BME280;56514;51.816;-0.026;2023-02-03T05:48:45;102244.72;;;11.05;69.11
69223;BME280;56514;51.816;-0.026;2023-02-03T05:51:30;102232.97;;;11.12;68.64
69223;BME280;56514;51.816;-0.026;2023-02-03T05:54:15;102241.09;;;11.08;68.89
69223;BME280;56514;51.816;-0.026;2023-02-03T05:57:00;102247.34;;;11.05;68.73
69223;BME280;56514;51.816;-0.026;2023-02-03T05:59:45;102241.78;;;11.11;68.83
69223;BME280;56514;51.816;-0.026;2023-02-03T06:02:30;102251.47;;;11.12;68.73
69223;BME280;56514;51.816;-0.026;2023-02-03T06:05:15;102269.94;;;11.12;68.66
69223;BME280;56514;51.816;-0.026;2023-02-03T06:08:00;102260.34;;;11.10;68.74
69223;BME280;56514;51.816;-0.026;2023-02-03T06:10:45;102265.91;;;11.04;68.91
69223;BME280;56514;51.816;-0.026;2023-02-03T06:13:30;102272.22;;;11.01;68.74
69223;BME280;56514;51.816;-0.026;2023-02-03T06:16:15;102267.97;;;10.97;69.25
69223;BME280;56514;51.816;-0.026;2023-02-03T06:19:01;102274.31;;;10.93;69.20
69223;BME280;56514;51.816;-0.026;2023-02-03T06:21:48;102286.38;;;10.99;68.83
69223;BME280;56514;51.816;-0.026;2023-02-03T06:24:33;102283.34;;;11.08;68.86
69223;BME280;56514;51.816;-0.026;2023-02-03T06:27:18;102272.75;;;10.89;69.15
69223;BME280;56514;51.816;-0.026;2023-02-03T06:30:03;102284.56;;;10.81;69.98
69223;BME280;56514;51.816;-0.026;2023-02-03T06:32:48;102279.88;;;10.87;69.66
69223;BME280;56514;51.816;-0.026;2023-02-03T06:35:33;102281.03;;;11.00;69.29
69223;BME280;56514;51.816;-0.026;2023-02-03T06:38:18;102283.28;;;11.09;68.84
69223;BME280;56514;51.816;-0.026;2023-02-03T06:41:03;102280.78;;;11.06;69.05
69223;BME280;56514;51.816;-0.026;2023-02-03T06:43:52;102284.53;;;11.01;69.03
69223;BME280;56514;51.816;-0.026;2023-02-03T06:46:37;102279.75;;;10.90;69.59
69223;BME280;56514;51.816;-0.026;2023-02-03T06:49:22;102279.53;;;10.95;69.37
69223;BME280;56514;51.816;-0.026;2023-02-03T06:52:07;102279.47;;;10.96;69.20
69223;BME280;56514;51.816;-0.026;2023-02-03T06:54:52;102287.47;;;10.95;69.90
69223;BME280;56514;51.816;-0.026;2023-02-03T06:57:44;102290.25;;;10.92;69.55
69223;BME280;56514;51.816;-0.026;2023-02-03T07:00:30;102303.44;;;10.92;69.87
69223;BME280;56514;51.816;-0.026;2023-02-03T07:03:15;102306.16;;;10.90;69.75
69223;BME280;56514;51.816;-0.026;2023-02-03T07:06:00;102298.16;;;10.92;69.82
69223;BME280;56514;51.816;-0.026;2023-02-03T07:08:45;102306.91;;;11.12;69.18
69223;BME280;56514;51.816;-0.026;2023-02-03T07:11:30;102300.50;;;11.18;69.48
69223;BME280;56514;51.816;-0.026;2023-02-03T07:14:16;102294.06;;;11.23;68.95
69223;BME280;56514;51.816;-0.026;2023-02-03T07:17:02;102292.78;;;11.13;69.27
69223;BME280;56514;51.816;-0.026;2023-02-03T07:19:46;102302.53;;;11.11;69.48
69223;BME280;56514;51.816;-0.026;2023-02-03T07:22:32;102300.34;;;11.21;68.94
69223;BME280;56514;51.816;-0.026;2023-02-03T07:25:17;102296.28;;;11.32;68.91
69223;BME280;56514;51.816;-0.026;2023-02-03T07:28:02;102292.78;;;11.32;68.68
69223;BME280;56514;51.816;-0.026;2023-02-03T07:30:51;102295.22;;;11.18;69.00
69223;BME280;56514;51.816;-0.026;2023-02-03T07:33:39;102291.50;;;11.22;68.97
69223;BME280;56514;51.816;-0.026;2023-02-03T07:36:23;102293.91;;;11.26;68.97
69223;BME280;56514;51.816;-0.026;2023-02-03T07:39:08;102301.06;;;11.24;68.87
69223;BME280;56514;51.816;-0.026;2023-02-03T07:41:53;102311.06;;;11.18;69.44
69223;BME280;56514;51.816;-0.026;2023-02-03T07:44:38;102293.91;;;11.26;69.09
69223;BME280;56514;51.816;-0.026;2023-02-03T07:47:23;102301.50;;;11.15;69.33
69223;BME280;56514;51.816;-0.026;2023-02-03T07:50:09;102299.84;;;11.31;68.93
69223;BME280;56514;51.816;-0.026;2023-02-03T07:52:54;102304.66;;;11.42;68.57
69223;BME280;56514;51.816;-0.026;2023-02-03T07:55:39;102299.78;;;11.33;68.71
69223;BME280;56514;51.816;-0.026;2023-02-03T07:58:24;102305.03;;;11.14;69.59
69223;BME280;56514;51.816;-0.026;2023-02-03T08:01:15;102303.28;;;11.33;68.95
69223;BME280;56514;51.816;-0.026;2023-02-03T08:04:01;102302.63;;;11.28;69.05
69223;BME280;56514;51.816;-0.026;2023-02-03T08:06:52;102307.91;;;11.28;68.77
69223;BME280;56514;51.816;-0.026;2023-02-03T08:09:37;102315.56;;;11.34;68.85
69223;BME280;56514;51.816;-0.026;2023-02-03T08:12:22;102314.63;;;11.35;68.70
69223;BME280;56514;51.816;-0.026;2023-02-03T08:15:08;102320.75;;;11.17;69.36
69223;BME280;56514;51.816;-0.026;2023-02-03T08:17:53;102334.97;;;11.15;69.84
69223;BME280;56514;51.816;-0.026;2023-02-03T08:20:38;102342.53;;;11.22;69.32
69223;BME280;56514;51.816;-0.026;2023-02-03T08:23:23;102350.59;;;11.19;69.51
69223;BME280;56514;51.816;-0.026;2023-02-03T08:26:08;102356.84;;;11.37;69.00
69223;BME280;56514;51.816;-0.026;2023-02-03T08:28:53;102352.78;;;11.30;69.06
69223;BME280;56514;51.816;-0.026;2023-02-03T08:31:40;102354.19;;;11.37;68.83
69223;BME280;56514;51.816;-0.026;2023-02-03T08:34:25;102364.06;;;11.33;68.80
69223;BME280;56514;51.816;-0.026;2023-02-03T08:37:12;102382.81;;;11.47;68.53
69223;BME280;56514;51.816;-0.026;2023-02-03T08:39:58;102374.28;;;11.41;69.06
69223;BME280;56514;51.816;-0.026;2023-02-03T08:42:43;102375.06;;;11.43;68.94
69223;BME280;56514;51.816;-0.026;2023-02-03T08:45:28;102377.25;;;11.53;68.58
69223;BME280;56514;51.816;-0.026;2023-02-03T08:48:13;102385.66;;;11.61;68.00
69223;BME280;56514;51.816;-0.026;2023-02-03T08:50:59;102382.97;;;11.63;67.95
69223;BME280;56514;51.816;-0.026;2023-02-03T08:53:45;102382.38;;;11.56;68.64
69223;BME280;56514;51.816;-0.026;2023-02-03T08:56:30;102389.44;;;11.76;67.85
69223;BME280;56514;51.816;-0.026;2023-02-03T08:59:15;102400.34;;;11.68;68.11
69223;BME280;56514;51.816;-0.026;2023-02-03T09:02:02;102412.94;;;11.82;67.49
69223;BME280;56514;51.816;-0.026;2023-02-03T09:04:48;102404.56;;;11.91;67.11
69223;BME280;56514;51.816;-0.026;2023-02-03T09:07:34;102411.28;;;11.98;66.71
69223;BME280;56514;51.816;-0.026;2023-02-03T09:10:20;102412.78;;;11.85;67.60
69223;BME280;56514;51.816;-0.026;2023-02-03T09:13:05;102425.38;;;11.98;66.73
69223;BME280;56514;51.816;-0.026;2023-02-03T09:15:51;102430.44;;;12.03;66.96
69223;BME280;56514;51.816;-0.026;2023-02-03T09:18:37;102437.22;;;12.08;66.34
69223;BME280;56514;51.816;-0.026;2023-02-03T09:21:22;102439.53;;;11.97;67.01
69223;BME280;56514;51.816;-0.026;2023-02-03T09:24:08;102439.72;;;12.11;66.43
69223;BME280;56514;51.816;-0.026;2023-02-03T09:26:53;102440.97;;;12.04;66.89
69223;BME280;56514;51.816;-0.026;2023-02-03T09:29:39;102448.88;;;12.23;66.35
69223;BME280;56514;51.816;-0.026;2023-02-03T09:32:24;102456.47;;;12.30;65.77
69223;BME280;56514;51.816;-0.026;2023-02-03T09:35:09;102473.91;;;12.34;65.96
69223;BME280;56514;51.816;-0.026;2023-02-03T09:37:57;102470.97;;;12.40;65.90
69223;BME280;56514;51.816;-0.026;2023-02-03T09:40:42;102479.31;;;12.50;65.61
69223;BME280;56514;51.816;-0.026;2023-02-03T09:46:25;102481.31;;;12.64;64.82
69223;BME280;56514;51.816;-0.026;2023-02-03T09:49:12;102484.75;;;12.66;64.98
69223;BME280;56514;51.816;-0.026;2023-02-03T09:52:20;102493.47;;;12.68;64.71
69223;BME280;56514;51.816;-0.026;2023-02-03T09:55:34;102517.25;;;12.69;64.53
69223;BME280;56514;51.816;-0.026;2023-02-03T09:58:20;102515.28;;;12.73;65.02
69223;BME280;56514;51.816;-0.026;2023-02-03T10:01:09;102518.28;;;12.84;64.74
69223;BME280;56514;51.816;-0.026;2023-02-03T10:04:10;102519.59;;;12.92;64.11
69223;BME280;56514;51.816;-0.026;2023-02-03T10:07:17;102521.47;;;13.09;63.89
69223;BME280;56514;51.816;-0.026;2023-02-03T10:11:03;102533.69;;;13.11;64.02
69223;BME280;56514;51.816;-0.026;2023-02-03T10:22:24;102516.88;;;13.46;62.31
69223;BME280;56514;51.816;-0.026;2023-02-03T10:25:20;102517.28;;;13.39;62.80
69223;BME280;56514;51.816;-0.026;2023-02-03T10:28:22;102519.59;;;13.28;63.17
69223;BME280;56514;51.816;-0.026;2023-02-03T10:31:16;102532.94;;;13.26;63.29
69223;BME280;56514;51.816;-0.026;2023-02-03T10:34:11;102531.16;;;13.27;63.21
69223;BME280;56514;51.816;-0.026;2023-02-03T10:37:00;102537.84;;;13.34;62.58
69223;BME280;56514;51.816;-0.026;2023-02-03T10:39:48;102535.03;;;13.20;63.36
69223;BME280;56514;51.816;-0.026;2023-02-03T10:42:34;102545.63;;;13.37;62.64
69223;BME280;56514;51.816;-0.026;2023-02-03T10:45:38;102536.22;;;13.31;63.15
69223;BME280;56514;51.816;-0.026;2023-02-03T10:48:24;102537.84;;;13.34;63.32
69223;BME280;56514;51.816;-0.026;2023-02-03T10:51:24;102537.22;;;13.46;63.01
69223;BME280;56514;51.816;-0.026;2023-02-03T10:54:32;102535.88;;;13.71;61.83
69223;BME280;56514;51.816;-0.026;2023-02-03T10:57:17;102550.31;;;13.49;62.52
69223;BME280;56514;51.816;-0.026;2023-02-03T11:00:27;102551.03;;;13.69;62.00
69223;BME280;56514;51.816;-0.026;2023-02-03T11:03:25;102552.09;;;13.65;61.98
69223;BME280;56514;51.816;-0.026;2023-02-03T11:06:14;102555.16;;;13.58;62.39
69223;BME280;56514;51.816;-0.026;2023-02-03T11:08:59;102555.94;;;13.77;61.81
69223;BME280;56514;51.816;-0.026;2023-02-03T11:11:44;102572.59;;;13.79;61.50
69223;BME280;56514;51.816;-0.026;2023-02-03T11:14:36;102550.16;;;13.69;61.88
69223;BME280;56514;51.816;-0.026;2023-02-03T11:17:24;102551.09;;;13.85;61.49
69223;BME280;56514;51.816;-0.026;2023-02-03T11:20:15;102556.38;;;13.85;61.44
69223;BME280;56514;51.816;-0.026;2023-02-03T11:23:02;102551.94;;;13.68;62.06
69223;BME280;56514;51.816;-0.026;2023-02-03T11:25:48;102548.69;;;13.96;61.35
69223;BME280;56514;51.816;-0.026;2023-02-03T11:28:34;102536.69;;;14.06;60.81
69223;BME280;56514;51.816;-0.026;2023-02-03T11:31:28;102555.25;;;14.22;60.40
69223;BME280;56514;51.816;-0.026;2023-02-03T11:34:30;102565.38;;;14.32;59.88
69223;BME280;56514;51.816;-0.026;2023-02-03T11:37:39;102560.56;;;14.22;60.38
69223;BME280;56514;51.816;-0.026;2023-02-03T11:40:30;102557.56;;;14.12;60.17
69223;BME280;56514;51.816;-0.026;2023-02-03T11:43:16;102568.09;;;14.13;60.59
69223;BME280;56514;51.816;-0.026;2023-02-03T11:46:04;102565.81;;;14.23;60.26
69223;BME280;56514;51.816;-0.026;2023-02-03T11:49:39;102565.19;;;14.35;59.49
69223;BME280;56514;51.816;-0.026;2023-02-03T12:05:28;102560.84;;;14.65;58.86
69223;BME280;56514;51.816;-0.026;2023-02-03T12:18:22;102564.00;;;14.56;59.44
69223;BME280;56514;51.816;-0.026;2023-02-03T12:28:19;102574.47;;;14.75;58.68
69223;BME280;56514;51.816;-0.026;2023-02-03T12:34:38;102583.09;;;15.09;58.60
69223;BME280;56514;51.816;-0.026;2023-02-03T12:37:31;102583.75;;;15.28;57.39
69223;BME280;56514;51.816;-0.026;2023-02-03T12:43:36;102583.56;;;15.31;56.93
69223;BME280;56514;51.816;-0.026;2023-02-03T12:46:44;102568.47;;;15.32;56.35
69223;BME280;56514;51.816;-0.026;2023-02-03T12:49:41;102570.06;;;15.20;57.38
69223;BME280;56514;51.816;-0.026;2023-02-03T12:52:36;102564.66;;;15.22;57.38
69223;BME280;56514;51.816;-0.026;2023-02-03T12:58:37;102566.69;;;15.32;56.62
69223;BME280;56514;51.816;-0.026;2023-02-03T13:01:37;102569.00;;;15.38;56.70
69223;BME280;56514;51.816;-0.026;2023-02-03T13:04:34;102561.03;;;15.38;56.92
69223;BME280;56514;51.816;-0.026;2023-02-03T13:07:46;102563.25;;;15.46;56.97
69223;BME280;56514;51.816;-0.026;2023-02-03T13:13:36;102557.41;;;15.39;56.83
69223;BME280;56514;51.816;-0.026;2023-02-03T13:16:28;102558.19;;;15.26;56.89
69223;BME280;56514;51.816;-0.026;2023-02-03T13:19:20;102563.66;;;15.54;56.47
69223;BME280;56514;51.816;-0.026;2023-02-03T13:22:10;102560.63;;;15.74;55.75
69223;BME280;56514;51.816;-0.026;2023-02-03T13:25:16;102539.53;;;15.85;56.08
69223;BME280;56514;51.816;-0.026;2023-02-03T13:43:14;102534.56;;;18.06;49.16
69223;BME280;56514;51.816;-0.026;2023-02-03T13:46:02;102522.16;;;18.42;48.59
69223;BME280;56514;51.816;-0.026;2023-02-03T13:48:52;102523.00;;;18.30;48.65
69223;BME280;56514;51.816;-0.026;2023-02-03T13:51:43;102517.28;;;17.86;49.71
69223;BME280;56514;51.816;-0.026;2023-02-03T13:54:35;102520.69;;;17.63;50.65
69223;BME280;56514;51.816;-0.026;2023-02-03T13:57:28;102527.09;;;18.11;49.93
69223;BME280;56514;51.816;-0.026;2023-02-03T14:12:33;102526.66;;;18.42;48.31
69223;BME280;56514;51.816;-0.026;2023-02-03T14:18:31;102527.81;;;18.50;48.18
69223;BME280;56514;51.816;-0.026;2023-02-03T14:21:19;102522.38;;;18.75;47.43
69223;BME280;56514;51.816;-0.026;2023-02-03T14:24:09;102522.38;;;18.99;46.84
69223;BME280;56514;51.816;-0.026;2023-02-03T14:26:57;102519.81;;;19.21;46.61
69223;BME280;56514;51.816;-0.026;2023-02-03T14:29:44;102524.59;;;19.74;45.95
69223;BME280;56514;51.816;-0.026;2023-02-03T14:32:50;102528.28;;;20.28;44.10
69223;BME280;56514;51.816;-0.026;2023-02-03T14:35:39;102529.34;;;20.70;43.01
69223;BME280;56514;51.816;-0.026;2023-02-03T14:38:30;102527.25;;;20.73;42.93
69223;BME280;56514;51.816;-0.026;2023-02-03T14:44:57;102534.53;;;20.29;43.22
69223;BME280;56514;51.816;-0.026;2023-02-03T14:57:43;102536.38;;;20.82;42.10
69223;BME280;56514;51.816;-0.026;2023-02-03T15:00:34;102527.59;;;20.80;42.08
69223;BME280;56514;51.816;-0.026;2023-02-03T15:03:24;102539.00;;;20.61;41.94
69223;BME280;56514;51.816;-0.026;2023-02-03T15:06:35;102543.63;;;20.37;43.33
69223;BME280;56514;51.816;-0.026;2023-02-03T15:09:32;102560.59;;;20.60;42.68
69223;BME280;56514;51.816;-0.026;2023-02-03T15:12:22;102561.44;;;20.16;42.73
69223;BME280;56514;51.816;-0.026;2023-02-03T15:15:12;102570.47;;;19.35;44.48
69223;BME280;56514;51.816;-0.026;2023-02-03T15:18:22;102564.19;;;18.76;46.10
69223;BME280;56514;51.816;-0.026;2023-02-03T15:21:17;102572.88;;;18.67;46.83
69223;BME280;56514;51.816;-0.026;2023-02-03T15:24:12;102560.59;;;18.65;46.73
69223;BME280;56514;51.816;-0.026;2023-02-03T15:26:58;102565.03;;;18.28;47.24
69223;BME280;56514;51.816;-0.026;2023-02-03T15:29:42;102573.44;;;17.72;48.95
69223;BME280;56514;51.816;-0.026;2023-02-03T15:32:33;102572.94;;;17.40;49.96
69223;BME280;56514;51.816;-0.026;2023-02-03T15:35:22;102571.75;;;17.05;50.91
69223;BME280;56514;51.816;-0.026;2023-02-03T15:38:14;102576.84;;;16.96;51.19
69223;BME280;56514;51.816;-0.026;2023-02-03T15:41:03;102570.97;;;16.91;51.13
69223;BME280;56514;51.816;-0.026;2023-02-03T15:43:55;102579.09;;;16.75;51.75
69223;BME280;56514;51.816;-0.026;2023-02-03T15:46:44;102582.47;;;16.91;51.40
69223;BME280;56514;51.816;-0.026;2023-02-03T15:49:39;102584.72;;;16.97;51.53
69223;BME280;56514;51.816;-0.026;2023-02-03T15:52:28;102582.28;;;17.21;50.85
69223;BME280;56514;51.816;-0.026;2023-02-03T15:55:31;102587.53;;;17.49;50.65
69223;BME280;56514;51.816;-0.026;2023-02-03T15:58:24;102588.28;;;17.64;49.72
69223;BME280;56514;51.816;-0.026;2023-02-03T16:01:12;102596.09;;;17.67;50.06
69223;BME280;56514;51.816;-0.026;2023-02-03T16:03:59;102599.50;;;17.56;49.42
69223;BME280;56514;51.816;-0.026;2023-02-03T16:06:47;102609.31;;;17.29;50.22
69223;BME280;56514;51.816;-0.026;2023-02-03T16:09:39;102595.25;;;16.86;51.33
69223;BME280;56514;51.816;-0.026;2023-02-03T16:12:29;102607.22;;;16.53;52.25
69223;BME280;56514;51.816;-0.026;2023-02-03T16:15:23;102617.81;;;15.97;53.66
69223;BME280;56514;51.816;-0.026;2023-02-03T16:18:15;102620.94;;;15.59;54.71
69223;BME280;56514;51.816;-0.026;2023-02-03T16:21:05;102615.56;;;15.45;55.49
69223;BME280;56514;51.816;-0.026;2023-02-03T16:23:50;102622.19;;;14.92;57.15
69223;BME280;56514;51.816;-0.026;2023-02-03T16:26:34;102636.56;;;14.57;58.24